TimeEST,TemperatureF,Dew PointF,Humidity,Sea Level PressureIn,VisibilityMPH,Wind Direction,Wind SpeedMPH,Gust SpeedMPH,PrecipitationIn,Events,Conditions,WindDirDegrees,DateUTC
12:55 AM,30.9,18.0,59,30.04,10.0,NW,18.4,24.2,N/A,,Overcast,310,2013-01-05 05:55:00
1:37 AM,30.0,19.0,64,30.03,10.0,NNW,12.7,21.9,N/A,,Overcast,330,2013-01-05 06:37:00
1:55 AM,28.9,19.0,67,30.06,10.0,NW,13.8,24.2,N/A,,Overcast,320,2013-01-05 06:55:00
2:55 AM,28.0,17.1,63,30.09,10.0,NNW,8.1,-,N/A,,Overcast,330,2013-01-05 07:55:00
3:55 AM,26.1,16.0,66,30.12,10.0,NNW,10.4,-,N/A,,Mostly Cloudy,330,2013-01-05 08:55:00
4:07 AM,26.1,16.0,66,30.10,10.0,NNW,6.9,-,N/A,,Scattered Clouds,340,2013-01-05 09:07:00
4:27 AM,26.1,16.0,66,30.11,10.0,NNW,6.9,-,N/A,,Mostly Cloudy,340,2013-01-05 09:27:00
4:55 AM,26.1,16.0,66,30.15,10.0,NW,3.5,-,N/A,,Overcast,320,2013-01-05 09:55:00
5:55 AM,24.1,15.1,69,30.17,10.0,North,4.6,-,N/A,,Overcast,350,2013-01-05 10:55:00
6:55 AM,21.9,14.0,72,30.19,10.0,NE,3.5,-,N/A,,Overcast,40,2013-01-05 11:55:00
7:55 AM,19.9,12.0,71,30.19,10.0,ENE,4.6,-,N/A,,Overcast,70,2013-01-05 12:55:00
8:55 AM,19.0,10.9,71,30.19,10.0,East,4.6,-,N/A,,Overcast,80,2013-01-05 13:55:00
9:55 AM,19.0,12.0,74,30.19,10.0,East,5.8,-,N/A,,Overcast,80,2013-01-05 14:55:00
10:55 AM,21.0,12.9,71,30.18,10.0,East,5.8,-,N/A,,Overcast,80,2013-01-05 15:55:00
11:55 AM,23.0,12.9,65,30.15,10.0,East,8.1,-,N/A,,Overcast,100,2013-01-05 16:55:00
12:55 PM,25.0,16.0,69,30.11,10.0,East,6.9,-,N/A,,Overcast,100,2013-01-05 17:55:00
1:55 PM,26.1,19.0,75,30.06,10.0,ESE,5.8,-,N/A,,Overcast,120,2013-01-05 18:55:00
2:55 PM,27.0,19.9,75,30.05,10.0,ESE,8.1,-,N/A,,Overcast,120,2013-01-05 19:55:00
3:55 PM,27.0,19.9,75,30.04,10.0,ESE,6.9,-,N/A,,Overcast,110,2013-01-05 20:55:00
4:06 PM,27.0,19.9,75,30.00,10.0,ESE,5.8,-,N/A,,Overcast,110,2013-01-05 21:06:00
4:55 PM,26.1,19.9,78,29.99,10.0,East,6.9,-,N/A,,Mostly Cloudy,100,2013-01-05 21:55:00
5:07 PM,26.1,19.9,78,29.97,10.0,ESE,6.9,-,N/A,,Scattered Clouds,110,2013-01-05 22:07:00
5:55 PM,26.1,19.0,75,29.97,10.0,East,6.9,-,N/A,,Mostly Cloudy,100,2013-01-05 22:55:00
6:22 PM,25.0,19.0,78,29.93,10.0,East,6.9,-,N/A,,Overcast,90,2013-01-05 23:22:00
6:55 PM,25.0,19.0,78,29.96,10.0,East,8.1,-,N/A,,Overcast,90,2013-01-05 23:55:00
7:09 PM,25.0,19.0,78,29.92,10.0,East,9.2,-,N/A,,Overcast,90,2013-01-06 00:09:00
7:55 PM,25.0,19.9,81,29.94,10.0,East,10.4,-,N/A,,Overcast,90,2013-01-06 00:55:00
8:17 PM,25.0,19.9,81,29.90,10.0,East,8.1,-,N/A,,Overcast,80,2013-01-06 01:17:00
8:46 PM,26.1,19.9,78,29.88,10.0,East,8.1,-,N/A,,Overcast,90,2013-01-06 01:46:00
8:55 PM,26.1,19.9,78,29.91,10.0,East,9.2,-,N/A,,Overcast,80,2013-01-06 01:55:00
9:07 PM,26.1,19.9,78,29.88,10.0,East,8.1,-,N/A,,Overcast,80,2013-01-06 02:07:00
9:55 PM,26.1,19.9,78,29.89,10.0,East,8.1,-,N/A,,Overcast,90,2013-01-06 02:55:00
10:32 PM,26.1,21.0,81,29.85,10.0,East,6.9,-,N/A,,Overcast,80,2013-01-06 03:32:00
10:55 PM,26.1,21.0,81,29.88,10.0,East,6.9,-,N/A,,Overcast,80,2013-01-06 03:55:00
11:55 PM,26.1,21.0,81,29.85,10.0,East,8.1,-,N/A,,Overcast,80,2013-01-06 04:55:00